Fairbanks, AK

12:28 PM AKDT on August 31, 2015 (GMT -0800)
Ballaine Road & Lynx Lane | | Change Station
CLOSE
Current Station
Personal Weather Station
Location: Fairbanks, AK
Elevation: 829 ft
Nearby Weather Stations

Elev 829 ft 64.90 °N, 147.83 °W | Updated 4 minutes ago

Overcast
Overcast
41.9 °F
Feels Like 42 °F
N
2.7
Wind Variable Wind from North
Gusts 3.4 mph

Today
High -- | Low -- °F
--% Chance of Precip.
Yesterday
High -- | Low -- °F
Precip. -- in
6:27 AM 9:13 PM
Waning Gibbous, 94% visible
Pressure 29.77 in
Visibility 10.0 miles
Clouds Few 600 ft
Mostly Cloudy 6000 ft
Overcast 20000 ft
Windchill 42 °F
Dew Point 36 °F
Humidity 81%
Rainfall 0.00 in
Snow Depth Not available.
UV 1 out of 12
Pollen Not available.
Air Quality Not available.
Flu Activity Not available.
METAR PAFA 311953Z 25008KT 10SM FEW006 BKN060 OVC200 06/01 A2975 RMK AO2 SLP081 T00560011
Pressure 29.77 in
Visibility 10.0 miles
Clouds Few 600 ft
Mostly Cloudy 6000 ft
Overcast 20000 ft
Windchill 42 °F
Dew Point 36 °F
Humidity 81%
Rainfall 0.00 in
Snow Depth Not available.
UV 1 out of 12
Pollen Not available.
Air Quality Not available.
Flu Activity Not available.
METAR PAFA 311953Z 25008KT 10SM FEW006 BKN060 OVC200 06/01 A2975 RMK AO2 SLP081 T00560011

10-Day Weather Forecast

×

Almanac

Astronomy

Aug. 31, 2015 Rise Set
Actual Time
Civil Twilight
Nautical Twilight
Astronomical Twilight
Moon
Length of Visible Light
Length of Day
Tomorrow will be .
, % of the Moon is Illuminated

Today's Extremes

State Highs State Lows

Community

WunderPhotos

Upload Photos

1,851,352 photos uploaded!

WunderBlogs® & News

Nearby

Air Quality

  Air Quality AQ Index Pollutant
Not available.

Snow Depth

Station Depth Elevation

Earthquake Activity

City Distance Mag. Time & Date
Minimum magnitude displayed is 2.5.

Coastal Water Temperatures

Place Temperature

Stations

Nearby Weather Stations

Station Location Temp. Windchill Dew Point Humidity Wind Precip. Elev Updated Type